Terminal Aerodrome Forecast
Issued by NWS

Home | Current Version | Previous Version | Text Only | Print | Product List | Glossary Off
Versions: 1 2 3 4 5 6 7 8 9 10 11 12 13 14

000
FTUS45 KGGW 311126 AAA
TAFGDV
TAF AMD
KGDV 311126Z 3111/0106 28014KT P6SM -SHRA SCT020 OVC035
     FM311600 32021G29KT P6SM -SHRA OVC015
     FM312000 32021G31KT P6SM -SHRA OVC020
     FM010000 33019G27KT P6SM BKN035
     FM010300 31009KT P6SM BKN045
      AMD LTD TO CLD VIS AND WIND=

USA.gov is the U.S. government's official web portal to all federal, state and local government web resources and services.